createdAt,value
2023-01-21T00:01:06.779Z,28.77
2023-01-21T00:03:34.037Z,29.58
2023-01-21T00:06:01.239Z,34.60
2023-01-21T00:08:28.422Z,38.80
2023-01-21T00:10:56.087Z,35.63
2023-01-21T00:13:23.336Z,39.47
2023-01-21T00:15:50.823Z,35.15
2023-01-21T00:18:18.031Z,30.10
2023-01-21T00:20:46.188Z,29.90
2023-01-21T00:23:13.479Z,29.23
2023-01-21T00:25:40.739Z,39.47
2023-01-21T00:28:07.930Z,31.90
2023-01-21T00:30:36.951Z,30.15
2023-01-21T00:33:04.660Z,31.33
2023-01-21T00:35:31.823Z,37.78
2023-01-21T00:37:58.976Z,33.83
2023-01-21T00:40:26.381Z,30.40
2023-01-21T00:42:53.503Z,36.25
2023-01-21T00:45:20.705Z,37.33
2023-01-21T00:47:47.831Z,40.83
2023-01-21T00:50:15.412Z,26.50
2023-01-21T00:52:42.745Z,38.22
2023-01-21T00:55:09.944Z,31.50
2023-01-21T00:57:37.071Z,25.55
2023-01-21T01:00:04.722Z,55.20
2023-01-21T01:02:31.901Z,46.53
2023-01-21T01:04:59.101Z,38.10
2023-01-21T01:07:26.318Z,39.90
2023-01-21T01:09:53.510Z,35.55
2023-01-21T01:12:20.668Z,40.83
2023-01-21T01:14:48.039Z,45.45
2023-01-21T01:17:15.176Z,46.10
2023-01-21T01:19:42.384Z,36.47
2023-01-21T01:22:09.583Z,41.72
2023-01-21T01:24:36.736Z,41.15
2023-01-21T01:27:03.979Z,35.28
2023-01-21T01:29:31.208Z,41.28
2023-01-21T01:31:58.391Z,41.72
2023-01-21T01:34:25.587Z,44.25
2023-01-21T01:36:52.766Z,39.47
2023-01-21T01:39:19.933Z,32.30
2023-01-21T01:41:47.109Z,39.50
2023-01-21T01:44:52.847Z,32.60
2023-01-21T01:47:20.486Z,38.65
2023-01-21T01:49:48.311Z,36.80
2023-01-21T01:52:16.064Z,32.45
2023-01-21T01:54:45.615Z,36.58
2023-01-21T01:57:14.251Z,28.90
2023-01-21T01:59:41.711Z,30.50
2023-01-21T02:02:10.423Z,39.58
2023-01-21T02:04:40.168Z,38.78
2023-01-21T02:07:08.070Z,38.83
2023-01-21T02:09:35.569Z,34.30
2023-01-21T02:12:03.852Z,33.55
2023-01-21T02:14:31.846Z,35.30
2023-01-21T02:17:18.015Z,44.78
2023-01-21T02:20:00.854Z,47.92
2023-01-21T02:22:28.000Z,38.00
2023-01-21T02:25:14.865Z,33.00
2023-01-21T02:27:48.197Z,36.78
2023-01-21T02:30:38.669Z,47.17
2023-01-21T02:33:09.594Z,48.97
2023-01-21T02:35:57.077Z,44.25
2023-01-21T02:38:30.667Z,46.97
2023-01-21T02:41:12.501Z,33.38
2023-01-21T02:43:59.918Z,44.60
2023-01-21T02:46:29.327Z,45.67
2023-01-21T02:49:24.266Z,42.35
2023-01-21T02:51:51.565Z,39.88
2023-01-21T02:54:40.265Z,38.03
2023-01-21T02:57:17.921Z,34.08
2023-01-21T02:59:49.514Z,40.47
2023-01-21T03:02:25.855Z,42.40
2023-01-21T03:04:58.206Z,42.45
2023-01-21T03:07:28.440Z,50.00
2023-01-21T03:09:59.283Z,34.25
2023-01-21T03:12:42.822Z,34.10
2023-01-21T03:18:01.848Z,40.28
2023-01-21T03:20:35.182Z,34.25
2023-01-21T03:23:04.790Z,35.10
2023-01-21T03:25:32.798Z,38.45
2023-01-21T03:28:00.685Z,36.60
2023-01-21T03:30:28.212Z,35.25
2023-01-21T03:32:56.474Z,38.97
2023-01-21T03:35:28.878Z,37.70
2023-01-21T03:37:59.255Z,36.47
2023-01-21T03:40:28.936Z,39.38
2023-01-21T03:42:56.644Z,40.00
2023-01-21T03:45:30.485Z,34.42
2023-01-21T03:47:59.747Z,33.67
2023-01-21T03:50:34.124Z,32.20
2023-01-21T03:53:01.412Z,36.45
2023-01-21T03:55:28.690Z,34.22
2023-01-21T03:57:55.461Z,36.55
2023-01-21T04:00:22.794Z,35.33
2023-01-21T04:02:49.974Z,38.83
2023-01-21T04:05:18.779Z,35.28
2023-01-21T04:07:45.585Z,33.72
2023-01-21T04:10:12.790Z,36.80
2023-01-21T04:12:40.655Z,30.02
2023-01-21T04:15:08.142Z,32.22
2023-01-21T04:17:35.260Z,36.55
2023-01-21T04:20:02.552Z,30.27
2023-01-21T04:22:29.738Z,28.92
2023-01-21T04:24:56.955Z,31.58
2023-01-21T04:27:24.138Z,31.15
2023-01-21T04:29:51.361Z,31.17
2023-01-21T04:32:18.651Z,30.58
2023-01-21T04:34:45.865Z,31.67
2023-01-21T04:37:12.634Z,27.92
2023-01-21T04:39:39.411Z,28.58
2023-01-21T04:42:06.728Z,26.90
2023-01-21T04:44:34.160Z,32.05
2023-01-21T04:47:01.351Z,28.60
2023-01-21T04:49:28.918Z,29.25
2023-01-21T04:51:57.224Z,30.20
2023-01-21T04:54:24.461Z,30.42
2023-01-21T04:56:51.637Z,32.35
2023-01-21T04:59:21.491Z,29.75
2023-01-21T05:01:48.632Z,29.00
2023-01-21T05:04:15.849Z,28.45
2023-01-21T05:06:43.034Z,32.97
2023-01-21T05:09:10.186Z,32.22
2023-01-21T05:11:37.466Z,31.00
2023-01-21T05:14:04.654Z,31.25
2023-01-21T05:16:31.852Z,32.58
2023-01-21T05:19:04.596Z,31.67
2023-01-21T05:21:31.967Z,34.63
2023-01-21T05:23:59.214Z,33.45
2023-01-21T05:26:26.415Z,33.05
2023-01-21T05:28:53.524Z,31.58
2023-01-21T05:31:20.865Z,31.67
2023-01-21T05:33:48.029Z,29.88
2023-01-21T05:36:15.142Z,33.78
2023-01-21T05:38:42.359Z,32.65
2023-01-21T05:41:09.620Z,29.25
2023-01-21T05:43:36.784Z,31.15
2023-01-21T05:46:04.012Z,30.67
2023-01-21T05:48:31.913Z,30.45
2023-01-21T05:50:59.287Z,28.00
2023-01-21T05:53:26.917Z,28.67
2023-01-21T05:55:54.964Z,32.63
2023-01-21T05:58:22.745Z,33.60
2023-01-21T06:00:50.036Z,31.50
2023-01-21T06:03:18.037Z,32.83
2023-01-21T06:05:46.203Z,31.58
2023-01-21T06:08:13.498Z,33.63
2023-01-21T06:10:40.712Z,28.73
2023-01-21T06:13:07.937Z,30.33
2023-01-21T06:15:35.127Z,29.58
2023-01-21T06:18:02.306Z,32.58
2023-01-21T06:20:30.612Z,29.25
2023-01-21T06:22:57.988Z,29.42
2023-01-21T06:25:25.978Z,32.40
2023-01-21T06:27:55.723Z,30.80
2023-01-21T06:30:23.378Z,29.08
2023-01-21T06:32:50.643Z,28.30
2023-01-21T06:35:18.108Z,26.00
2023-01-21T06:37:45.822Z,29.95
2023-01-21T06:40:27.879Z,30.45
2023-01-21T06:42:55.326Z,28.13
2023-01-21T06:45:22.455Z,28.55
2023-01-21T06:47:49.709Z,29.98
2023-01-21T06:50:18.084Z,30.98
2023-01-21T06:52:46.967Z,31.52
2023-01-21T06:55:14.559Z,29.20
2023-01-21T06:57:41.761Z,32.45
2023-01-21T07:00:09.258Z,30.80
2023-01-21T07:02:36.524Z,30.65
2023-01-21T07:05:04.563Z,30.83
2023-01-21T07:07:31.819Z,33.00
2023-01-21T07:09:59.365Z,30.38
2023-01-21T07:12:26.548Z,31.70
2023-01-21T07:14:53.727Z,30.75
2023-01-21T07:17:21.632Z,32.97
2023-01-21T07:19:48.783Z,29.30
2023-01-21T07:22:16.201Z,31.48
2023-01-21T07:24:43.365Z,35.35
2023-01-21T07:27:10.790Z,32.00
2023-01-21T07:29:38.045Z,32.92
2023-01-21T07:32:05.485Z,32.95
2023-01-21T07:34:32.681Z,29.95
2023-01-21T07:36:59.827Z,31.05
2023-01-21T07:39:26.965Z,30.30
2023-01-21T07:41:54.199Z,31.02
2023-01-21T07:44:21.373Z,26.85
2023-01-21T07:46:48.663Z,28.63
2023-01-21T07:49:17.464Z,30.05
2023-01-21T07:51:45.886Z,31.95
2023-01-21T07:54:13.446Z,30.23
2023-01-21T07:56:40.919Z,30.48
2023-01-21T07:59:08.081Z,31.55
2023-01-21T08:01:35.264Z,30.45
2023-01-21T08:04:02.508Z,33.95
2023-01-21T08:06:29.663Z,31.15
2023-01-21T08:08:56.883Z,31.80
2023-01-21T08:11:24.065Z,32.30
2023-01-21T08:13:51.255Z,34.72
2023-01-21T08:16:18.509Z,33.20
2023-01-21T08:18:45.677Z,32.35
2023-01-21T08:21:12.806Z,33.92
2023-01-21T08:23:39.979Z,35.67
2023-01-21T08:26:25.786Z,34.25
2023-01-21T08:28:56.024Z,35.05
2023-01-21T08:31:23.476Z,34.53
2023-01-21T08:33:50.609Z,35.58
2023-01-21T08:36:17.743Z,37.17
2023-01-21T08:38:47.106Z,38.95
2023-01-21T08:41:16.594Z,33.28
2023-01-21T08:43:43.765Z,37.33
2023-01-21T08:46:10.927Z,33.90
2023-01-21T08:48:38.383Z,33.35
2023-01-21T08:51:06.059Z,37.25
2023-01-21T08:53:33.381Z,36.53
2023-01-21T08:56:01.256Z,246.18
2023-01-21T08:58:28.988Z,178.00
2023-01-21T09:00:56.732Z,184.90
2023-01-21T09:03:24.414Z,148.57
2023-01-21T09:05:51.813Z,79.07
2023-01-21T09:08:19.434Z,74.03
2023-01-21T09:11:01.660Z,72.07
2023-01-21T09:13:29.969Z,101.03
2023-01-21T09:15:57.151Z,116.93
2023-01-21T09:18:24.437Z,101.53
2023-01-21T09:20:51.732Z,80.22
2023-01-21T09:23:25.160Z,70.05
2023-01-21T09:25:52.559Z,82.05
2023-01-21T09:28:20.291Z,96.88
2023-01-21T09:30:47.880Z,92.72
2023-01-21T09:33:16.211Z,61.72
2023-01-21T09:35:44.342Z,46.00
2023-01-21T09:38:12.864Z,49.38
2023-01-21T09:40:44.892Z,68.68
2023-01-21T09:43:14.609Z,61.00
2023-01-21T09:45:45.615Z,48.50
2023-01-21T09:48:17.367Z,49.63
2023-01-21T09:50:46.090Z,54.40
2023-01-21T09:53:22.058Z,50.63
2023-01-21T09:55:50.038Z,52.65
2023-01-21T09:58:17.185Z,58.38
2023-01-21T10:00:59.435Z,65.93
2023-01-21T10:03:35.909Z,55.85
2023-01-21T10:06:13.385Z,55.92
2023-01-21T10:08:49.756Z,53.17
2023-01-21T10:11:27.207Z,50.88
2023-01-21T10:14:13.148Z,73.93
2023-01-21T10:16:50.918Z,50.33
2023-01-21T10:19:21.192Z,48.63
2023-01-21T10:21:54.131Z,40.40
2023-01-21T10:24:34.136Z,34.83
2023-01-21T10:27:01.521Z,35.53
2023-01-21T10:29:29.057Z,40.60
2023-01-21T10:32:07.263Z,36.35
2023-01-21T10:34:37.358Z,29.23
2023-01-21T10:37:19.961Z,36.17
2023-01-21T10:39:57.979Z,31.50
2023-01-21T10:42:25.157Z,29.80
2023-01-21T10:44:52.313Z,33.38
2023-01-21T10:47:34.373Z,33.95
2023-01-21T10:50:20.101Z,34.63
2023-01-21T10:52:47.440Z,28.25
2023-01-21T10:55:18.058Z,39.90
2023-01-21T10:57:51.696Z,41.50
2023-01-21T11:00:24.969Z,103.40
2023-01-21T11:02:55.260Z,142.30
2023-01-21T11:05:23.518Z,114.25
2023-01-21T11:07:51.446Z,81.38
2023-01-21T11:10:21.008Z,106.13
2023-01-21T11:12:48.732Z,105.07
2023-01-21T11:15:17.787Z,60.03
2023-01-21T11:17:46.433Z,81.97
2023-01-21T11:20:21.487Z,57.60
2023-01-21T11:22:49.185Z,72.40
2023-01-21T11:25:25.540Z,70.50
2023-01-21T11:27:52.638Z,65.38
2023-01-21T11:30:51.437Z,45.13
2023-01-21T11:33:25.217Z,73.85
2023-01-21T11:35:53.212Z,62.00
2023-01-21T11:38:33.091Z,46.97
2023-01-21T11:41:01.356Z,43.10
2023-01-21T11:43:36.132Z,52.33
2023-01-21T11:46:22.465Z,41.55
2023-01-21T11:48:49.759Z,36.92
2023-01-21T11:51:17.992Z,63.10
2023-01-21T11:53:46.704Z,53.88
2023-01-21T11:56:14.538Z,40.60
2023-01-21T11:58:42.445Z,47.80
2023-01-21T12:01:12.006Z,43.42
2023-01-21T12:03:43.104Z,41.40
2023-01-21T12:06:10.634Z,36.47
2023-01-21T12:08:38.934Z,44.00
2023-01-21T12:11:07.811Z,32.25
2023-01-21T12:13:53.788Z,46.67
2023-01-21T12:16:20.970Z,34.13
2023-01-21T12:18:51.184Z,30.00
2023-01-21T12:21:37.266Z,35.83
2023-01-21T12:24:23.734Z,40.10
2023-01-21T12:26:55.317Z,37.50
2023-01-21T12:29:34.877Z,38.15
2023-01-21T12:32:08.400Z,45.53
2023-01-21T12:34:43.087Z,37.92
2023-01-21T12:37:10.216Z,45.55
2023-01-21T12:39:40.155Z,48.10
2023-01-21T12:42:07.293Z,37.67
2023-01-21T12:44:37.434Z,38.15
2023-01-21T12:47:07.350Z,44.38
2023-01-21T12:49:48.457Z,38.22
2023-01-21T12:52:20.247Z,49.40
2023-01-21T12:54:51.493Z,44.75
2023-01-21T12:57:26.445Z,52.63
2023-01-21T12:59:57.122Z,36.50
2023-01-21T13:02:29.914Z,39.72
2023-01-21T13:05:00.260Z,42.88
2023-01-21T13:07:35.323Z,38.75
2023-01-21T13:10:24.218Z,52.95
2023-01-21T13:12:56.479Z,40.75
2023-01-21T13:15:28.152Z,53.93
2023-01-21T13:17:58.118Z,65.75
2023-01-21T13:20:26.218Z,71.82
2023-01-21T13:22:58.284Z,48.80
2023-01-21T13:25:41.743Z,71.03
2023-01-21T13:30:39.032Z,63.15
2023-01-21T13:33:29.173Z,53.00
2023-01-21T13:36:08.602Z,30.02
2023-01-21T13:38:45.083Z,41.90
2023-01-21T13:41:12.324Z,41.50
2023-01-21T13:44:01.099Z,44.45
2023-01-21T13:46:28.306Z,42.65
2023-01-21T13:48:58.694Z,45.33
2023-01-21T13:51:28.610Z,61.28
2023-01-21T13:54:14.583Z,60.08
2023-01-21T13:56:59.979Z,42.75
2023-01-21T13:59:50.262Z,61.53
2023-01-21T14:02:24.378Z,65.22
2023-01-21T14:05:10.482Z,59.28
2023-01-21T14:07:37.616Z,37.08
2023-01-21T14:10:10.259Z,38.78
2023-01-21T14:12:37.534Z,60.42
2023-01-21T14:15:20.823Z,63.85
2023-01-21T14:17:47.927Z,64.93
2023-01-21T14:20:18.409Z,64.32
2023-01-21T14:22:51.839Z,68.25
2023-01-21T14:27:49.307Z,65.45
2023-01-21T14:30:20.073Z,97.50
2023-01-21T14:33:02.871Z,95.75
2023-01-21T14:35:45.511Z,96.55
2023-01-21T14:38:31.715Z,95.80
2023-01-21T14:41:09.280Z,98.00
2023-01-21T14:43:36.683Z,79.85
2023-01-21T14:46:32.187Z,76.60
2023-01-21T14:49:03.034Z,123.90
2023-01-21T14:51:31.986Z,76.88
2023-01-21T14:54:03.631Z,73.35
2023-01-21T14:56:34.421Z,91.57
2023-01-21T14:59:21.848Z,83.72
2023-01-21T15:01:52.163Z,88.57
2023-01-21T15:04:22.323Z,77.47
2023-01-21T15:06:50.942Z,114.63
2023-01-21T15:09:23.493Z,81.10
2023-01-21T15:11:55.356Z,112.40
2023-01-21T15:14:26.757Z,127.57
2023-01-21T15:16:53.998Z,135.02
2023-01-21T15:19:25.730Z,129.13
2023-01-21T15:22:11.761Z,148.68
2023-01-21T15:24:38.952Z,151.20
2023-01-21T15:27:18.469Z,96.85
2023-01-21T15:29:45.733Z,139.63
2023-01-21T15:32:18.853Z,102.93
2023-01-21T15:34:50.682Z,131.15
2023-01-21T15:37:20.642Z,146.90
2023-01-21T15:39:52.348Z,150.23
2023-01-21T15:42:22.850Z,101.95
2023-01-21T15:45:12.670Z,126.18
2023-01-21T15:47:46.347Z,137.65
2023-01-21T15:50:25.269Z,132.40
2023-01-21T15:53:05.600Z,142.77
2023-01-21T15:55:38.843Z,112.47
2023-01-21T16:01:02.795Z,144.10
2023-01-21T16:03:33.114Z,109.68
2023-01-21T16:06:05.020Z,108.53
2023-01-21T16:08:47.525Z,112.05
2023-01-21T16:11:33.698Z,157.80
2023-01-21T16:14:13.888Z,133.82
2023-01-21T16:16:47.239Z,170.45
2023-01-21T16:21:43.454Z,143.18
2023-01-21T16:24:20.043Z,192.10
2023-01-21T16:26:47.458Z,160.43
2023-01-21T16:29:15.957Z,133.52
2023-01-21T16:31:46.784Z,144.40
2023-01-21T16:34:18.090Z,130.48
2023-01-21T16:36:45.259Z,130.90
2023-01-21T16:39:12.574Z,180.35
2023-01-21T16:41:40.350Z,190.63
2023-01-21T16:44:16.026Z,168.93
2023-01-21T16:46:48.666Z,133.25
2023-01-21T16:49:16.988Z,135.50
2023-01-21T16:51:54.044Z,139.50
2023-01-21T16:54:23.749Z,142.93
2023-01-21T16:56:53.953Z,183.23
2023-01-21T16:59:29.030Z,148.77
2023-01-21T17:01:56.866Z,186.43
2023-01-21T17:04:24.262Z,151.23
2023-01-21T17:06:51.874Z,162.52
2023-01-21T17:09:25.132Z,205.57
2023-01-21T17:14:22.755Z,165.40
2023-01-21T17:16:49.958Z,165.85
2023-01-21T17:19:25.827Z,161.68
2023-01-21T17:21:55.584Z,194.55
2023-01-21T17:24:29.045Z,182.25
2023-01-21T17:27:08.562Z,145.93
2023-01-21T17:29:35.854Z,149.43
2023-01-21T17:32:04.832Z,165.38
2023-01-21T17:34:32.823Z,126.18
2023-01-21T17:37:00.256Z,162.63
2023-01-21T17:39:46.327Z,145.65
2023-01-21T17:42:18.488Z,152.40
2023-01-21T17:45:08.422Z,148.60
2023-01-21T17:47:50.642Z,151.02
2023-01-21T17:50:29.496Z,121.65
2023-01-21T17:53:02.191Z,100.93
2023-01-21T17:55:31.210Z,156.88
2023-01-21T17:58:00.842Z,143.18
2023-01-21T18:00:30.264Z,103.63
2023-01-21T18:02:57.842Z,105.90
2023-01-21T18:05:25.221Z,108.95
2023-01-21T18:07:52.771Z,128.95
2023-01-21T18:10:21.286Z,137.27
2023-01-21T18:12:48.489Z,115.72
2023-01-21T18:15:18.263Z,93.43
2023-01-21T18:17:47.531Z,88.50
2023-01-21T18:20:19.473Z,101.43
2023-01-21T18:22:47.204Z,128.52
2023-01-21T18:25:15.269Z,102.93
2023-01-21T18:27:46.982Z,140.15
2023-01-21T18:30:18.866Z,136.95
2023-01-21T18:32:46.582Z,156.93
2023-01-21T18:35:17.934Z,133.30
2023-01-21T18:37:45.302Z,222.00
2023-01-21T18:40:18.376Z,108.00
2023-01-21T18:42:46.639Z,150.02
2023-01-21T18:45:17.894Z,109.82
2023-01-21T18:47:45.900Z,174.57
2023-01-21T18:50:20.507Z,137.43
2023-01-21T18:52:47.994Z,142.85
2023-01-21T18:55:16.078Z,146.00
2023-01-21T18:57:44.751Z,142.45
2023-01-21T19:00:31.507Z,159.30
2023-01-21T19:02:59.464Z,193.15
2023-01-21T19:05:28.080Z,205.65
2023-01-21T19:07:55.262Z,173.77
2023-01-21T19:10:22.389Z,137.07
2023-01-21T19:12:49.736Z,148.43
2023-01-21T19:15:18.400Z,197.82
2023-01-21T19:17:45.893Z,192.88
2023-01-21T19:20:20.744Z,147.27
2023-01-21T19:22:48.452Z,138.75
2023-01-21T19:25:18.050Z,186.40
2023-01-21T19:27:46.879Z,151.10
2023-01-21T19:30:22.091Z,146.10
2023-01-21T19:32:49.710Z,134.25
2023-01-21T19:35:17.868Z,130.80
2023-01-21T19:37:49.190Z,127.68
2023-01-21T19:40:17.759Z,141.65
2023-01-21T19:42:45.169Z,195.77
2023-01-21T19:45:12.631Z,132.60
2023-01-21T19:47:41.514Z,187.10
2023-01-21T19:50:19.322Z,180.98
2023-01-21T19:52:47.095Z,140.27
2023-01-21T19:55:15.709Z,140.57
2023-01-21T19:57:43.488Z,183.73
2023-01-21T20:00:17.754Z,193.27
2023-01-21T20:02:45.229Z,132.23
2023-01-21T20:05:12.382Z,136.90
2023-01-21T20:07:39.591Z,190.98
2023-01-21T20:10:14.040Z,182.18
2023-01-21T20:12:43.929Z,181.25
2023-01-21T20:15:14.811Z,142.68
2023-01-21T20:17:42.763Z,181.75
2023-01-21T20:20:16.304Z,140.02
2023-01-21T20:22:43.643Z,134.27
2023-01-21T20:25:21.153Z,203.20
2023-01-21T20:27:58.159Z,201.25
2023-01-21T20:30:32.982Z,147.75
2023-01-21T20:33:03.261Z,138.32
2023-01-21T20:35:30.631Z,137.75
2023-01-21T20:37:58.974Z,119.57
2023-01-21T20:40:30.778Z,132.65
2023-01-21T20:42:58.384Z,133.55
2023-01-21T20:45:29.666Z,110.53
2023-01-21T20:47:58.385Z,121.82
2023-01-21T20:50:27.072Z,160.55
2023-01-21T20:52:54.771Z,163.43
2023-01-21T20:55:24.348Z,159.52
2023-01-21T20:57:51.719Z,123.07
2023-01-21T21:00:20.491Z,135.82
2023-01-21T21:02:48.975Z,185.52
2023-01-21T21:05:18.224Z,182.65
2023-01-21T21:07:45.692Z,169.05
2023-01-21T21:10:17.032Z,183.35
2023-01-21T21:12:44.390Z,132.90
2023-01-21T21:15:11.932Z,129.55
2023-01-21T21:17:39.251Z,130.82
2023-01-21T21:20:06.628Z,126.50
2023-01-21T21:22:33.844Z,126.88
2023-01-21T21:25:01.082Z,128.63
2023-01-21T21:27:28.262Z,115.43
2023-01-21T21:29:59.183Z,184.43
2023-01-21T21:32:26.360Z,126.25
2023-01-21T21:34:55.141Z,134.02
2023-01-21T21:37:23.188Z,175.63
2023-01-21T21:39:50.314Z,127.10
2023-01-21T21:42:35.877Z,166.65
2023-01-21T21:45:02.988Z,131.05
2023-01-21T21:47:48.675Z,169.35
2023-01-21T21:50:15.827Z,132.30
2023-01-21T21:52:43.022Z,163.23
2023-01-21T21:55:14.372Z,127.07
2023-01-21T21:57:42.201Z,162.43
2023-01-21T22:00:09.676Z,162.98
2023-01-21T22:02:36.880Z,129.07
2023-01-21T22:05:04.190Z,180.55
2023-01-21T22:07:31.427Z,139.32
2023-01-21T22:09:58.612Z,169.02
2023-01-21T22:12:25.777Z,128.48
2023-01-21T22:14:52.932Z,182.40
2023-01-21T22:17:20.114Z,161.57
2023-01-21T22:19:47.293Z,123.00
2023-01-21T22:22:14.414Z,182.98
2023-01-21T22:24:41.587Z,124.22
2023-01-21T22:27:08.779Z,175.77
2023-01-21T22:29:35.993Z,119.38
2023-01-21T22:32:03.804Z,227.95
2023-01-21T22:34:31.013Z,175.90
2023-01-21T22:36:58.205Z,127.25
2023-01-21T22:39:25.662Z,145.77
2023-01-21T22:41:55.391Z,154.48
2023-01-21T22:44:22.570Z,128.98
2023-01-21T22:46:50.002Z,158.07
2023-01-21T22:49:17.218Z,170.57
2023-01-21T22:51:44.370Z,116.22
2023-01-21T22:54:11.613Z,171.20
2023-01-21T22:56:52.204Z,161.52
2023-01-21T22:59:19.898Z,165.57
2023-01-21T23:01:48.816Z,167.07
2023-01-21T23:04:17.361Z,171.73
2023-01-21T23:06:44.864Z,130.60
2023-01-21T23:09:15.808Z,168.10
2023-01-21T23:11:45.244Z,165.10
2023-01-21T23:14:12.538Z,137.57
2023-01-21T23:16:40.118Z,138.98
2023-01-21T23:19:07.232Z,133.27
2023-01-21T23:21:34.363Z,122.07
2023-01-21T23:24:01.549Z,136.80
2023-01-21T23:26:28.932Z,178.75
2023-01-21T23:28:56.706Z,132.25
2023-01-21T23:31:24.507Z,121.60
2023-01-21T23:33:52.540Z,125.60
2023-01-21T23:36:19.731Z,128.93
2023-01-21T23:38:46.923Z,164.50
2023-01-21T23:41:17.032Z,115.82
2023-01-21T23:43:44.452Z,167.88
2023-01-21T23:46:13.128Z,175.70
2023-01-21T23:48:40.363Z,129.80
2023-01-21T23:51:12.131Z,126.45
2023-01-21T23:53:39.401Z,122.05
2023-01-21T23:56:11.191Z,126.55
2023-01-21T23:58:38.585Z,117.30
